Time;durP1;ratioP1;P1;durP2;ratioP2;P2;SDS_P1;SDS_P2;PMS_P1;PMS_P2;Temp;Humidity;BMP_temperature;BMP_pressure;BME280_temperature;BME280_humidity;BME280_pressure;Samples;Min_cycle;Max_cycle;Signal;HPM_P1;HPM_P2
2022/01/07 00:01:14;;;;;;;8.30;4.15;;;6.50;71.50;;;;;;5013986;28;20053;-77
2022/01/07 00:03:41;;;;;;;8.98;4.65;;;6.50;71.60;;;;;;5007643;28;20045;-75
2022/01/07 00:06:08;;;;;;;12.93;5.28;;;6.50;71.60;;;;;;5030220;28;20042;-77
2022/01/07 00:08:35;;;;;;;10.63;5.00;;;6.50;71.50;;;;;;5013360;28;20436;-75
2022/01/07 00:11:02;;;;;;;8.40;5.13;;;6.60;71.50;;;;;;5013117;28;20037;-75
2022/01/07 00:13:29;;;;;;;8.27;4.78;;;6.60;71.20;;;;;;4989634;28;20544;-75
2022/01/07 00:15:56;;;;;;;7.25;3.92;;;6.60;71.30;;;;;;4996547;28;20046;-74
2022/01/07 00:18:23;;;;;;;11.10;4.88;;;6.60;71.20;;;;;;5013223;28;20387;-76
2022/01/07 00:20:52;;;;;;;10.85;5.32;;;6.60;71.10;;;;;;5028180;28;20406;-74
2022/01/07 00:23:20;;;;;;;11.07;5.47;;;6.60;70.80;;;;;;5010399;28;20485;-76
2022/01/07 00:25:47;;;;;;;6.35;4.43;;;6.60;70.80;;;;;;4995965;28;20072;-74
2022/01/07 00:28:14;;;;;;;8.50;4.50;;;6.60;70.70;;;;;;5031292;28;20042;-75
2022/01/07 00:30:41;;;;;;;5.22;3.65;;;6.70;70.60;;;;;;5011010;28;20534;-75
2022/01/07 00:33:08;;;;;;;7.40;4.25;;;6.70;70.50;;;;;;4996538;28;20049;-74
2022/01/07 00:35:36;;;;;;;8.68;4.68;;;6.70;70.50;;;;;;5012861;28;20060;-75
2022/01/07 00:38:04;;;;;;;7.57;4.40;;;6.70;70.50;;;;;;5012268;28;20048;-77
2022/01/07 00:40:31;;;;;;;5.80;4.43;;;6.70;70.50;;;;;;5003254;28;20383;-75
2022/01/07 00:42:58;;;;;;;8.20;3.90;;;6.80;70.30;;;;;;5012703;28;20037;-75
2022/01/07 00:45:25;;;;;;;6.68;3.92;;;6.80;70.30;;;;;;5012607;28;20048;-77
2022/01/07 00:47:53;;;;;;;6.07;4.47;;;6.80;70.20;;;;;;5012972;28;20520;-76
2022/01/07 00:50:21;;;;;;;8.45;3.80;;;6.80;70.00;;;;;;5009337;28;20293;-76
2022/01/07 00:52:48;;;;;;;4.10;3.63;;;6.80;70.00;;;;;;5012463;28;20057;-76
2022/01/07 00:55:16;;;;;;;8.38;4.25;;;6.80;69.90;;;;;;4996042;28;20044;-75
2022/01/07 00:57:43;;;;;;;6.38;3.78;;;6.80;69.60;;;;;;5008104;28;20034;-75
2022/01/07 01:00:14;;;;;;;5.85;3.80;;;6.90;69.60;;;;;;5007854;28;20096;-77
2022/01/07 01:02:41;;;;;;;8.60;4.05;;;6.90;69.50;;;;;;4990876;28;20072;-75
2022/01/07 01:05:10;;;;;;;7.13;4.22;;;6.90;69.60;;;;;;5015587;28;20448;-76
2022/01/07 01:07:38;;;;;;;9.88;5.10;;;6.90;69.60;;;;;;5030467;28;20428;-76
2022/01/07 01:10:07;;;;;;;8.90;4.10;;;6.90;69.50;;;;;;4996434;28;20449;-76
2022/01/07 01:12:35;;;;;;;6.80;4.78;;;6.90;69.50;;;;;;4997058;28;20042;-74
2022/01/07 01:15:05;;;;;;;8.35;4.32;;;6.90;69.30;;;;;;5034439;28;20033;-75
2022/01/07 01:17:32;;;;;;;8.73;4.57;;;6.90;70.00;;;;;;5026965;28;20041;-75
2022/01/07 01:19:59;;;;;;;8.30;4.00;;;7.00;69.50;;;;;;5013145;28;20045;-75
2022/01/07 01:22:26;;;;;;;5.65;4.05;;;7.00;69.60;;;;;;5012375;28;20050;-74
2022/01/07 01:24:52;;;;;;;5.25;3.75;;;7.00;69.70;;;;;;5012342;28;20524;-77
2022/01/07 01:27:19;;;;;;;8.32;3.95;;;7.00;69.60;;;;;;5024252;28;20049;-75
2022/01/07 01:29:46;;;;;;;5.63;3.30;;;7.00;69.40;;;;;;5030388;28;20052;-78
2022/01/07 01:32:16;;;;;;;9.60;4.00;;;7.00;69.30;;;;;;5012747;28;20041;-75
2022/01/07 01:34:43;;;;;;;7.45;4.07;;;7.00;69.30;;;;;;4999560;28;20493;-77
2022/01/07 01:37:11;;;;;;;4.18;3.53;;;7.00;69.30;;;;;;5007527;28;20069;-76
2022/01/07 01:39:38;;;;;;;8.77;3.53;;;7.20;69.40;;;;;;5007815;28;20051;-74
2022/01/07 01:42:05;;;;;;;6.43;3.92;;;7.00;69.30;;;;;;5005133;28;20827;-76
2022/01/07 01:44:32;;;;;;;6.10;3.35;;;7.10;69.30;;;;;;5009372;28;20048;-75
2022/01/07 01:46:59;;;;;;;4.85;3.67;;;7.10;69.30;;;;;;5029970;28;20455;-74
2022/01/07 01:49:26;;;;;;;6.07;3.42;;;7.10;69.40;;;;;;5027165;28;20041;-76
2022/01/07 01:51:53;;;;;;;6.20;3.42;;;7.10;69.50;;;;;;4997274;28;20045;-75
2022/01/07 01:54:20;;;;;;;6.90;4.15;;;7.00;69.60;;;;;;5012651;28;20046;-74
2022/01/07 01:56:47;;;;;;;6.20;4.13;;;7.00;69.70;;;;;;5024272;28;20378;-75
2022/01/07 01:59:21;;;;;;;6.57;3.63;;;7.00;69.60;;;;;;5030387;28;20048;-75
2022/01/07 02:01:48;;;;;;;9.75;3.83;;;7.00;69.90;;;;;;5030696;28;20668;-74
2022/01/07 02:04:15;;;;;;;6.78;3.58;;;7.00;70.10;;;;;;5012394;28;20046;-75
2022/01/07 02:06:42;;;;;;;8.32;3.83;;;7.00;70.30;;;;;;5011913;28;20049;-76
2022/01/07 02:09:09;;;;;;;5.97;3.28;;;6.90;70.40;;;;;;5029836;28;20060;-78
2022/01/07 02:11:36;;;;;;;9.93;4.43;;;7.10;70.60;;;;;;5030349;28;20061;-75
2022/01/07 02:14:03;;;;;;;6.50;3.90;;;6.90;70.30;;;;;;5009013;28;20124;-74
2022/01/07 02:16:30;;;;;;;6.05;3.47;;;6.90;70.40;;;;;;5027389;28;20033;-75
2022/01/07 02:18:57;;;;;;;5.78;3.20;;;6.90;70.60;;;;;;5012345;28;20513;-74
2022/01/07 02:21:27;;;;;;;4.88;3.13;;;6.90;70.60;;;;;;5026835;28;20132;-74
2022/01/07 02:23:53;;;;;;;5.82;3.03;;;6.90;71.30;;;;;;5009741;28;20046;-76
2022/01/07 02:26:20;;;;;;;6.57;4.03;;;6.90;70.60;;;;;;5029286;28;20512;-77
2022/01/07 02:28:49;;;;;;;7.80;3.22;;;6.90;70.70;;;;;;5012302;28;20057;-76
2022/01/07 02:31:17;;;;;;;5.60;3.92;;;6.80;70.70;;;;;;5012955;28;20148;-75
2022/01/07 02:33:45;;;;;;;4.75;2.78;;;6.80;70.60;;;;;;5012773;28;20038;-75
2022/01/07 02:36:13;;;;;;;6.95;3.03;;;6.90;70.70;;;;;;5029831;28;20257;-76
2022/01/07 02:38:40;;;;;;;5.00;3.10;;;6.90;70.80;;;;;;5012178;28;20053;-76
2022/01/07 02:41:07;;;;;;;5.13;2.80;;;6.90;70.80;;;;;;5024106;28;20042;-75
2022/01/07 02:43:34;;;;;;;4.40;2.38;;;6.90;70.70;;;;;;5012169;28;20045;-78
2022/01/07 02:46:01;;;;;;;4.28;2.63;;;6.90;70.60;;;;;;4995410;28;20046;-75
2022/01/07 02:48:28;;;;;;;5.57;2.92;;;6.90;70.50;;;;;;4996683;28;20567;-76
2022/01/07 02:50:56;;;;;;;7.30;2.40;;;7.00;70.40;;;;;;5027205;28;20298;-75
2022/01/07 02:53:23;;;;;;;7.50;2.20;;;6.90;70.40;;;;;;5006026;28;20045;-76
2022/01/07 02:55:50;;;;;;;5.18;2.55;;;6.90;70.40;;;;;;5008515;28;20049;-76
2022/01/07 02:58:17;;;;;;;5.65;1.98;;;6.90;70.10;;;;;;5012984;28;20112;-77
2022/01/07 03:00:44;;;;;;;4.10;2.00;;;6.90;70.10;;;;;;5005148;28;20528;-75
2022/01/07 03:03:11;;;;;;;5.10;2.63;;;6.90;70.00;;;;;;4997466;28;20412;-76
2022/01/07 03:05:41;;;;;;;3.45;2.10;;;7.00;70.00;;;;;;4995572;28;20057;-75
2022/01/07 03:08:09;;;;;;;5.00;2.63;;;7.00;69.80;;;;;;5008667;28;20144;-75
2022/01/07 03:10:36;;;;;;;7.10;2.67;;;7.00;70.30;;;;;;5005739;28;20053;-76
2022/01/07 03:13:04;;;;;;;5.55;2.35;;;7.00;69.70;;;;;;5011905;28;20044;-75
2022/01/07 03:15:33;;;;;;;3.13;2.00;;;7.00;69.60;;;;;;5011884;28;20047;-75
2022/01/07 03:18:00;;;;;;;4.47;2.20;;;7.00;69.60;;;;;;5012590;28;20057;-75
2022/01/07 03:20:27;;;;;;;7.43;2.05;;;7.10;69.80;;;;;;4989312;28;20049;-76
2022/01/07 03:22:54;;;;;;;7.82;2.28;;;7.10;69.50;;;;;;4994829;28;20064;-75
2022/01/07 03:25:21;;;;;;;5.25;2.28;;;7.10;69.30;;;;;;5012735;28;20050;-76
2022/01/07 03:27:48;;;;;;;5.20;2.17;;;7.10;69.50;;;;;;5032578;28;20419;-77
2022/01/07 03:30:18;;;;;;;4.47;1.95;;;7.10;69.30;;;;;;5011576;28;20068;-78
2022/01/07 03:32:45;;;;;;;5.25;2.05;;;7.10;69.20;;;;;;5010205;28;20420;-75
2022/01/07 03:35:13;;;;;;;7.57;1.75;;;7.10;69.10;;;;;;5015007;28;20041;-75
2022/01/07 03:37:42;;;;;;;6.38;2.17;;;7.20;69.00;;;;;;5015525;28;20049;-77
2022/01/07 03:40:12;;;;;;;5.53;2.78;;;7.20;69.00;;;;;;5010485;28;20042;-75
2022/01/07 03:42:40;;;;;;;3.40;2.17;;;7.20;68.50;;;;;;5015098;28;20065;-75
2022/01/07 03:45:08;;;;;;;7.75;2.30;;;7.20;68.20;;;;;;5014987;28;20076;-75
2022/01/07 03:47:35;;;;;;;4.28;2.03;;;7.20;68.40;;;;;;5010837;28;20052;-75
2022/01/07 03:50:06;;;;;;;6.55;2.67;;;7.30;68.20;;;;;;5028132;28;20030;-75
2022/01/07 03:52:33;;;;;;;4.32;2.05;;;7.30;67.90;;;;;;4998523;28;20046;-76
2022/01/07 03:55:01;;;;;;;5.07;2.42;;;7.30;68.40;;;;;;4999319;28;20089;-75
2022/01/07 03:57:28;;;;;;;3.33;2.20;;;7.30;68.20;;;;;;4990434;28;20045;-75
2022/01/07 03:59:55;;;;;;;6.30;2.00;;;7.30;68.60;;;;;;5014102;28;20041;-77
2022/01/07 04:02:22;;;;;;;5.25;2.70;;;7.30;68.60;;;;;;5033153;28;20049;-76
2022/01/07 04:04:49;;;;;;;5.82;2.15;;;7.40;68.70;;;;;;5032521;28;20344;-77
2022/01/07 04:07:16;;;;;;;4.80;2.20;;;7.30;68.70;;;;;;4998973;28;20061;-75
2022/01/07 04:09:43;;;;;;;3.42;2.20;;;7.30;68.60;;;;;;5029629;28;20045;-76
2022/01/07 04:12:10;;;;;;;5.25;2.15;;;7.30;68.40;;;;;;5032261;28;20061;-77
2022/01/07 04:14:37;;;;;;;6.35;2.50;;;7.40;68.70;;;;;;5014133;28;20041;-77
2022/01/07 04:17:04;;;;;;;4.82;2.28;;;7.30;68.70;;;;;;5013942;28;20033;-77
2022/01/07 04:19:31;;;;;;;5.63;2.45;;;7.30;68.70;;;;;;4998209;28;20053;-76
2022/01/07 04:21:57;;;;;;;6.80;2.53;;;7.30;68.80;;;;;;5015041;28;20056;-76
2022/01/07 04:24:24;;;;;;;4.50;2.85;;;7.30;69.00;;;;;;4997405;28;20449;-79
2022/01/07 04:26:51;;;;;;;4.97;2.17;;;7.30;69.20;;;;;;5007856;28;20053;-75
2022/01/07 04:29:18;;;;;;;5.32;3.42;;;7.20;69.50;;;;;;5032430;28;20092;-75
2022/01/07 04:31:45;;;;;;;4.20;2.00;;;7.30;69.90;;;;;;4998151;28;20049;-78
2022/01/07 04:34:12;;;;;;;8.88;2.83;;;7.30;70.00;;;;;;5012695;28;20493;-76
2022/01/07 04:36:39;;;;;;;7.75;2.55;;;7.20;70.90;;;;;;5030463;28;20030;-78
2022/01/07 04:39:05;;;;;;;5.28;2.55;;;7.20;70.50;;;;;;5032464;28;20044;-75
2022/01/07 04:41:32;;;;;;;4.70;2.08;;;7.20;70.70;;;;;;5010595;28;20425;-75
2022/01/07 04:43:59;;;;;;;5.82;2.17;;;7.10;70.80;;;;;;4994020;28;20509;-76
2022/01/07 04:46:26;;;;;;;5.45;2.58;;;7.10;71.10;;;;;;5014118;28;20037;-75
2022/01/07 04:48:53;;;;;;;9.38;3.35;;;7.10;71.30;;;;;;5014258;28;20124;-76
2022/01/07 04:51:20;;;;;;;7.40;2.13;;;7.00;71.40;;;;;;5014701;28;20481;-78
2022/01/07 04:53:46;;;;;;;4.82;2.08;;;7.00;71.60;;;;;;5011143;28;20050;-75
2022/01/07 04:56:13;;;;;;;5.68;2.67;;;7.00;71.70;;;;;;5013324;28;20517;-78
2022/01/07 04:58:40;;;;;;;5.05;2.33;;;7.00;71.90;;;;;;5013697;28;20057;-75
2022/01/07 05:01:07;;;;;;;4.45;2.28;;;6.90;72.00;;;;;;5008808;28;20042;-75
2022/01/07 05:03:34;;;;;;;2.05;1.80;;;6.90;72.20;;;;;;5024484;28;20418;-76
2022/01/07 05:06:44;;;;;;;5.10;2.55;;;6.90;72.30;;;;;;5031172;28;20517;-76
2022/01/07 05:08:48;;;;;;;3.42;1.92;;;6.80;72.30;;;;;;5013321;28;20053;-76
2022/01/07 05:11:15;;;;;;;6.88;2.70;;;6.80;72.50;;;;;;5014445;28;20060;-77
2022/01/07 05:13:42;;;;;;;3.95;2.20;;;6.80;72.80;;;;;;5010395;28;20048;-78
2022/01/07 05:16:08;;;;;;;6.53;2.53;;;6.70;73.00;;;;;;5017393;28;20048;-77
2022/01/07 05:18:35;;;;;;;4.72;2.13;;;6.70;73.20;;;;;;4999765;28;20519;-74
2022/01/07 05:21:02;;;;;;;3.60;2.05;;;6.70;73.30;;;;;;5026316;28;20052;-76
2022/01/07 05:23:29;;;;;;;2.60;2.17;;;6.70;73.50;;;;;;5013893;28;20095;-77
2022/01/07 05:25:56;;;;;;;5.07;3.10;;;6.70;73.60;;;;;;5032945;28;20235;-76
2022/01/07 05:28:22;;;;;;;2.92;2.00;;;6.70;73.70;;;;;;5014310;28;20052;-77
2022/01/07 05:30:49;;;;;;;4.32;2.30;;;6.60;73.80;;;;;;4993749;28;20400;-78
2022/01/07 05:33:16;;;;;;;5.57;2.38;;;6.80;74.00;;;;;;5013645;28;20502;-78
2022/01/07 05:35:43;;;;;;;5.00;2.72;;;6.60;74.00;;;;;;5016048;28;20045;-78
2022/01/07 05:38:10;;;;;;;4.78;2.10;;;6.60;74.10;;;;;;5013305;28;20042;-78
2022/01/07 05:40:36;;;;;;;3.53;1.85;;;6.60;74.20;;;;;;5011790;28;20056;-78
2022/01/07 05:43:03;;;;;;;3.88;2.05;;;6.60;74.30;;;;;;5000561;28;20053;-78
2022/01/07 05:45:30;;;;;;;4.72;2.28;;;6.60;74.40;;;;;;5016786;28;20050;-77
2022/01/07 05:47:57;;;;;;;5.30;2.00;;;6.60;74.50;;;;;;5016762;28;20053;-78
2022/01/07 05:50:24;;;;;;;5.13;2.60;;;6.60;74.60;;;;;;5023433;28;20048;-78
2022/01/07 05:52:51;;;;;;;4.10;2.00;;;6.60;74.70;;;;;;5012095;28;20057;-78
2022/01/07 05:55:18;;;;;;;3.67;2.20;;;6.60;74.80;;;;;;5014885;28;20041;-77
2022/01/07 05:57:45;;;;;;;4.90;2.55;;;6.70;74.90;;;;;;5013782;28;20052;-77
2022/01/07 06:00:12;;;;;;;4.78;2.10;;;6.70;75.00;;;;;;5003629;28;20041;-78
2022/01/07 06:02:39;;;;;;;4.43;2.42;;;6.70;75.00;;;;;;4994258;28;20049;-77
2022/01/07 06:05:07;;;;;;;3.08;2.10;;;6.70;75.00;;;;;;5013767;28;20468;-78
2022/01/07 06:07:34;;;;;;;2.92;2.15;;;6.70;75.70;;;;;;5011808;28;20053;-77
2022/01/07 06:10:00;;;;;;;3.35;2.08;;;6.70;75.10;;;;;;5012475;28;20417;-77
2022/01/07 06:12:27;;;;;;;5.35;2.45;;;6.80;75.20;;;;;;4995242;28;20038;-75
2022/01/07 06:14:54;;;;;;;3.25;2.38;;;6.80;75.20;;;;;;4995551;28;20037;-75
2022/01/07 06:17:21;;;;;;;4.82;2.30;;;6.90;75.30;;;;;;5007271;28;20422;-75
2022/01/07 06:19:48;;;;;;;4.28;2.10;;;6.80;75.30;;;;;;5011287;28;20041;-75
2022/01/07 06:22:15;;;;;;;6.07;2.53;;;6.80;75.40;;;;;;5011658;28;20056;-75
2022/01/07 06:24:42;;;;;;;4.13;2.55;;;6.80;75.40;;;;;;5007072;28;20041;-73
2022/01/07 06:27:09;;;;;;;5.15;2.67;;;6.80;75.20;;;;;;5007348;28;20508;-74
2022/01/07 06:29:37;;;;;;;4.07;2.72;;;6.80;75.10;;;;;;5011157;28;20041;-73
2022/01/07 06:32:06;;;;;;;3.47;2.38;;;6.80;75.20;;;;;;5011750;28;20817;-74
2022/01/07 06:34:34;;;;;;;4.03;2.20;;;6.80;75.10;;;;;;5003646;28;20076;-74
2022/01/07 06:37:03;;;;;;;2.35;2.03;;;6.90;75.30;;;;;;5017439;28;20399;-73
2022/01/07 06:39:29;;;;;;;3.42;2.25;;;6.90;75.30;;;;;;5002599;28;20054;-73
2022/01/07 06:41:58;;;;;;;4.13;3.33;;;6.90;75.30;;;;;;5021282;28;20041;-74
2022/01/07 06:44:26;;;;;;;4.82;3.97;;;6.90;75.30;;;;;;5009149;28;20037;-72
2022/01/07 06:46:53;;;;;;;4.03;2.25;;;6.90;75.30;;;;;;5008116;28;20514;-74
2022/01/07 06:49:20;;;;;;;5.82;3.00;;;6.90;75.30;;;;;;5024481;28;20379;-73
2022/01/07 06:51:47;;;;;;;3.17;2.50;;;7.00;75.40;;;;;;5016764;28;20401;-74
2022/01/07 06:54:14;;;;;;;3.80;2.80;;;7.00;75.30;;;;;;5013846;28;20041;-73
2022/01/07 06:56:42;;;;;;;3.13;2.58;;;7.00;75.90;;;;;;5026531;28;20049;-73
2022/01/07 06:59:12;;;;;;;4.75;2.58;;;7.00;75.40;;;;;;4992714;28;20429;-74
2022/01/07 07:01:43;;;;;;;3.63;2.60;;;7.00;75.30;;;;;;5011344;28;20041;-73
2022/01/07 07:04:10;;;;;;;3.90;2.80;;;7.00;75.30;;;;;;5027976;28;20049;-74
2022/01/07 07:06:36;;;;;;;2.85;2.35;;;7.10;75.20;;;;;;5027589;28;20049;-74
2022/01/07 07:09:04;;;;;;;3.33;2.35;;;7.10;75.20;;;;;;4996052;28;20056;-73
2022/01/07 07:11:31;;;;;;;5.88;3.03;;;7.10;75.20;;;;;;5010992;28;20073;-74
2022/01/07 07:13:58;;;;;;;2.80;2.50;;;7.10;75.20;;;;;;5016100;28;20057;-74
2022/01/07 07:16:26;;;;;;;2.70;2.25;;;7.10;75.20;;;;;;5015782;28;20052;-74
2022/01/07 07:18:53;;;;;;;4.50;3.13;;;7.10;75.10;;;;;;5012442;28;20038;-74
2022/01/07 07:21:20;;;;;;;3.53;2.25;;;7.20;75.20;;;;;;4995476;28;20053;-73
2022/01/07 07:23:47;;;;;;;6.22;2.38;;;7.20;75.20;;;;;;5011698;28;20042;-73
2022/01/07 07:26:14;;;;;;;3.92;2.60;;;7.20;75.10;;;;;;5007854;28;20045;-74
2022/01/07 07:28:41;;;;;;;5.95;2.70;;;7.20;75.00;;;;;;5029527;28;20041;-74
2022/01/07 07:31:13;;;;;;;3.88;2.28;;;7.20;74.90;;;;;;5003386;28;20076;-73
2022/01/07 07:39:08;;;;;;;2.60;2.30;;;7.30;74.90;;;;;;5014480;28;20050;-74
2022/01/07 07:41:36;;;;;;;4.43;2.58;;;7.30;74.60;;;;;;5009351;28;20056;-74
2022/01/07 07:44:05;;;;;;;3.00;2.42;;;7.30;74.80;;;;;;4991310;28;20041;-74
2022/01/07 07:46:34;;;;;;;3.92;2.53;;;7.30;74.60;;;;;;5001771;28;20081;-74
2022/01/07 07:49:03;;;;;;;4.50;2.15;;;7.30;74.60;;;;;;4998429;28;20048;-74
2022/01/07 07:51:30;;;;;;;2.45;2.25;;;7.30;74.60;;;;;;5008056;28;20042;-73
2022/01/07 07:53:58;;;;;;;3.20;2.15;;;7.30;74.60;;;;;;5022080;28;20042;-74
2022/01/07 07:56:26;;;;;;;2.95;2.42;;;7.30;74.50;;;;;;5013548;28;20045;-74
2022/01/07 07:58:54;;;;;;;3.45;2.80;;;7.40;74.60;;;;;;4997258;28;20049;-73
2022/01/07 08:01:21;;;;;;;3.53;2.72;;;7.40;74.60;;;;;;5026577;28;20042;-73
2022/01/07 08:03:48;;;;;;;9.02;3.08;;;7.40;74.70;;;;;;5020842;28;20037;-73
2022/01/07 08:06:15;;;;;;;3.28;2.40;;;7.40;74.70;;;;;;5013811;28;20041;-73
2022/01/07 08:08:42;;;;;;;2.92;2.45;;;7.40;74.60;;;;;;5026813;28;20037;-74
2022/01/07 08:11:11;;;;;;;2.67;2.47;;;7.60;74.70;;;;;;5015577;28;20040;-73
2022/01/07 08:16:28;;;;;;;3.47;2.50;;;7.40;74.60;;;;;;5009870;28;20140;-74
2022/01/07 08:18:57;;;;;;;3.70;2.47;;;7.50;74.60;;;;;;5025757;28;20041;-73
2022/01/07 08:21:26;;;;;;;2.42;2.22;;;7.50;74.50;;;;;;5009070;28;20052;-74
2022/01/07 08:23:54;;;;;;;4.90;2.90;;;7.50;74.50;;;;;;5012438;28;20045;-74
2022/01/07 08:26:22;;;;;;;2.92;2.35;;;7.50;74.60;;;;;;5013454;28;20042;-73
2022/01/07 08:28:59;;;;;;;3.72;1.95;;;7.50;74.60;;;;;;5020978;28;20045;-74
2022/01/07 08:34:53;;;;;;;2.08;1.98;;;7.50;74.60;;;;;;5023397;28;20452;-74
2022/01/07 08:37:00;;;;;;;2.45;2.13;;;7.60;74.50;;;;;;5021483;28;20037;-74
2022/01/07 08:39:27;;;;;;;3.47;2.20;;;7.60;74.50;;;;;;5012364;28;20033;-73
2022/01/07 08:41:54;;;;;;;3.53;1.85;;;7.60;74.50;;;;;;5024149;28;20049;-73
2022/01/07 08:44:23;;;;;;;2.75;2.08;;;7.60;74.40;;;;;;4989409;28;20060;-73
2022/01/07 08:46:51;;;;;;;2.70;2.33;;;7.60;74.30;;;;;;5002912;28;20142;-74
2022/01/07 08:49:18;;;;;;;3.30;2.13;;;7.60;74.20;;;;;;4988716;28;20125;-72
2022/01/07 08:51:45;;;;;;;2.33;2.13;;;7.70;74.20;;;;;;4997867;28;20045;-72
2022/01/07 08:54:12;;;;;;;3.03;2.60;;;7.70;74.20;;;;;;5014421;23;20050;-54
2022/01/07 08:56:39;;;;;;;3.72;2.75;;;7.70;74.10;;;;;;4991469;28;20125;-52
2022/01/07 08:59:06;;;;;;;2.38;2.17;;;7.70;74.70;;;;;;4995110;28;20076;-52
2022/01/07 09:01:36;;;;;;;2.75;2.45;;;7.70;74.00;;;;;;4997376;28;20074;-54
2022/01/07 09:04:03;;;;;;;2.33;1.85;;;7.70;74.10;;;;;;4992379;28;20054;-53
2022/01/07 09:06:30;;;;;;;2.75;1.90;;;7.80;74.20;;;;;;4990414;28;20069;-52
2022/01/07 09:08:57;;;;;;;1.60;1.50;;;7.70;74.10;;;;;;4990836;28;20038;-54
2022/01/07 09:11:23;;;;;;;2.63;2.15;;;7.80;74.10;;;;;;5000023;28;20100;-54
2022/01/07 09:13:52;;;;;;;3.20;1.77;;;7.80;74.20;;;;;;4990205;28;20097;-55
2022/01/07 09:16:23;;;;;;;2.78;2.13;;;7.80;74.10;;;;;;5003307;28;20045;-51
2022/01/07 09:18:50;;;;;;;9.05;2.75;;;7.80;74.00;;;;;;5000282;28;20062;-55
2022/01/07 09:21:18;;;;;;;2.28;2.08;;;7.90;74.00;;;;;;5012222;28;20050;-52
2022/01/07 09:23:45;;;;;;;4.00;2.35;;;7.90;74.10;;;;;;4991560;28;20042;-53
2022/01/07 09:26:13;;;;;;;2.53;1.80;;;7.90;73.90;;;;;;4996539;28;20042;-55
2022/01/07 09:28:40;;;;;;;3.17;2.15;;;7.90;73.90;;;;;;5003069;28;20050;-55
2022/01/07 09:31:07;;;;;;;1.80;1.65;;;7.90;73.90;;;;;;5006263;28;20129;-52
2022/01/07 09:33:34;;;;;;;2.10;1.70;;;8.00;73.80;;;;;;4985861;28;20047;-55
2022/01/07 09:36:21;;;;;;;3.88;2.05;;;8.00;73.60;;;;;;4997576;28;20121;-52
2022/01/07 09:38:48;;;;;;;2.83;2.00;;;8.00;73.50;;;;;;5008744;28;20073;-55
2022/01/07 09:41:14;;;;;;;3.25;1.83;;;8.00;73.40;;;;;;4992296;28;20098;-54
2022/01/07 09:43:45;;;;;;;1.50;1.40;;;8.00;73.40;;;;;;5032059;23;20567;-50
2022/01/07 09:46:16;;;;;;;2.90;1.85;;;8.00;73.40;;;;;;5024075;28;20037;-49
2022/01/07 09:48:43;;;;;;;1.92;1.73;;;8.10;73.40;;;;;;5039822;28;20045;-48
2022/01/07 09:51:12;;;;;;;3.05;1.90;;;8.10;73.40;;;;;;5030928;28;20511;-48
2022/01/07 09:53:38;;;;;;;2.00;1.80;;;8.10;73.20;;;;;;5031093;28;20048;-50
2022/01/07 09:56:06;;;;;;;3.17;1.73;;;8.10;73.20;;;;;;5036780;28;20041;-50
2022/01/07 09:58:34;;;;;;;2.47;2.10;;;8.10;73.20;;;;;;5042058;28;20568;-50
2022/01/07 10:01:06;;;;;;;2.40;2.10;;;8.10;73.20;;;;;;5031590;28;20049;-49
2022/01/07 10:03:39;;;;;;;2.13;1.85;;;8.10;73.30;;;;;;5024581;28;20474;-48
2022/01/07 10:06:19;;;;;;;3.65;2.28;;;8.20;73.30;;;;;;5030970;28;20064;-50
2022/01/07 10:09:10;;;;;;;3.33;2.28;;;8.20;73.20;;;;;;5044206;28;20090;-49
2022/01/07 10:11:38;;;;;;;2.03;1.85;;;8.20;73.10;;;;;;5042446;28;20041;-47
2022/01/07 10:14:25;;;;;;;2.20;2.00;;;8.20;73.30;;;;;;5047166;28;20037;-49
2022/01/07 10:16:53;;;;;;;4.60;2.83;;;8.30;72.90;;;;;;5033138;28;20528;-49
2022/01/07 10:19:43;;;;;;;3.47;3.03;;;8.30;73.10;;;;;;5040161;28;20112;-48
2022/01/07 10:22:14;;;;;;;2.90;2.50;;;8.30;72.70;;;;;;5019839;28;20053;-49
2022/01/07 10:24:58;;;;;;;3.75;1.95;;;8.30;72.90;;;;;;5037018;28;20408;-49
2022/01/07 10:27:37;;;;;;;2.40;2.20;;;8.40;72.60;;;;;;5038578;28;20069;-51
2022/01/07 10:30:12;;;;;;;2.55;2.30;;;8.30;72.30;;;;;;5050856;28;20048;-48
2022/01/07 10:32:40;;;;;;;3.10;2.42;;;8.40;72.70;;;;;;5035850;28;20040;-48
2022/01/07 10:35:15;;;;;;;4.45;2.30;;;8.40;72.90;;;;;;5033764;28;20096;-51
2022/01/07 10:38:08;;;;;;;2.60;2.40;;;8.40;72.90;;;;;;5034493;28;20041;-49
2022/01/07 10:40:36;;;;;;;2.53;2.30;;;8.40;72.70;;;;;;5027323;28;20084;-48
2022/01/07 10:43:13;;;;;;;3.80;2.58;;;8.50;73.10;;;;;;5026778;28;20052;-48
2022/01/07 10:45:52;;;;;;;2.47;2.13;;;8.50;72.90;;;;;;5030708;28;20112;-50
2022/01/07 10:48:22;;;;;;;3.47;2.45;;;8.50;73.00;;;;;;5025423;28;20513;-52
2022/01/07 10:50:51;;;;;;;3.83;2.53;;;8.60;73.00;;;;;;5012654;28;20493;-52
2022/01/07 10:53:19;;;;;;;2.75;2.00;;;8.70;72.80;;;;;;5041911;28;20114;-49
2022/01/07 10:55:57;;;;;;;2.88;2.60;;;8.70;72.50;;;;;;5035452;28;20043;-48
2022/01/07 10:58:24;;;;;;;3.25;2.53;;;8.70;72.00;;;;;;5029827;28;20492;-51
2022/01/07 11:00:50;;;;;;;3.60;2.70;;;8.80;72.40;;;;;;5040245;28;20034;-49
2022/01/07 11:03:17;;;;;;;2.60;2.40;;;8.70;72.30;;;;;;5041633;28;20045;-48
2022/01/07 11:05:44;;;;;;;2.50;2.28;;;8.80;72.30;;;;;;5037303;28;20130;-47
2022/01/07 11:08:14;;;;;;;2.38;2.17;;;8.80;72.30;;;;;;5028315;28;20041;-51
2022/01/07 11:10:42;;;;;;;4.45;2.20;;;8.80;71.90;;;;;;5032420;28;20473;-47
2022/01/07 11:13:11;;;;;;;4.30;2.70;;;8.90;72.00;;;;;;5041721;28;20450;-50
2022/01/07 11:15:38;;;;;;;2.10;1.90;;;8.90;71.90;;;;;;5049933;28;20091;-49
2022/01/07 11:18:05;;;;;;;3.22;2.20;;;8.90;72.00;;;;;;5038224;28;20511;-48
2022/01/07 11:20:32;;;;;;;3.88;2.90;;;8.80;71.80;;;;;;5039553;28;20037;-48
2022/01/07 11:22:59;;;;;;;5.88;2.90;;;8.90;71.70;;;;;;5040479;28;20524;-52
2022/01/07 11:25:31;;;;;;;2.45;2.22;;;8.80;71.80;;;;;;5029720;28;20046;-51
2022/01/07 11:27:59;;;;;;;3.92;2.30;;;8.80;71.80;;;;;;5028194;28;20440;-48
2022/01/07 11:30:32;;;;;;;4.38;2.63;;;8.80;72.00;;;;;;5037990;28;20061;-47
2022/01/07 11:32:59;;;;;;;;;;;8.80;72.10;;;;;;5049012;28;20091;-50
2022/01/07 11:35:26;;;;;;;4.53;3.20;;;8.90;72.00;;;;;;5033472;28;19925;-47
2022/01/07 11:37:55;;;;;;;4.13;2.83;;;8.90;72.30;;;;;;5023750;28;20037;-47
2022/01/07 11:40:31;;;;;;;3.83;2.30;;;8.90;72.30;;;;;;5037458;28;20037;-49
2022/01/07 11:43:08;;;;;;;3.83;3.08;;;8.90;72.40;;;;;;5031445;28;20041;-51
2022/01/07 11:45:35;;;;;;;5.38;2.67;;;8.90;72.70;;;;;;5027213;28;20159;-48
2022/01/07 11:48:12;;;;;;;5.60;3.08;;;9.00;72.70;;;;;;5042914;28;20050;-50
2022/01/07 11:50:53;;;;;;;3.08;2.53;;;9.10;72.00;;;;;;5045606;28;20103;-47
2022/01/07 11:53:39;;;;;;;5.47;2.67;;;9.10;72.10;;;;;;5053544;28;20450;-51
2022/01/07 11:56:08;;;;;;;4.03;2.42;;;9.10;72.00;;;;;;5036640;28;20033;-49
2022/01/07 11:58:42;;;;;;;4.85;2.45;;;9.20;71.90;;;;;;5027421;28;20064;-49
2022/01/07 12:01:28;;;;;;;2.90;2.30;;;9.20;71.60;;;;;;5053455;28;20033;-47
2022/01/07 12:04:00;;;;;;;8.40;3.28;;;9.20;71.60;;;;;;5042551;28;20037;-47
2022/01/07 12:06:38;;;;;;;4.97;3.22;;;9.20;72.00;;;;;;5032341;28;20559;-50
2022/01/07 12:09:08;;;;;;;7.72;3.50;;;9.20;71.80;;;;;;5049131;28;20049;-50
2022/01/07 12:11:37;;;;;;;10.40;4.93;;;9.30;72.00;;;;;;5033457;28;20489;-50
2022/01/07 12:14:15;;;;;;;4.47;3.50;;;9.30;72.00;;;;;;5030557;28;20061;-52
2022/01/07 12:16:44;;;;;;;8.43;3.83;;;9.30;71.80;;;;;;5045659;28;20037;-51
2022/01/07 12:19:18;;;;;;;10.15;3.83;;;9.30;71.90;;;;;;5024675;28;20053;-51
2022/01/07 12:21:47;;;;;;;10.45;3.92;;;9.30;72.00;;;;;;5030547;28;20390;-49
2022/01/07 12:24:26;;;;;;;7.63;3.92;;;9.40;72.20;;;;;;5034626;28;20086;-51
2022/01/07 12:27:09;;;;;;;6.80;4.07;;;9.40;71.90;;;;;;5046174;28;20045;-47
2022/01/07 12:29:37;;;;;;;9.30;3.78;;;9.50;71.50;;;;;;5047963;28;20119;-52
2022/01/07 12:32:07;;;;;;;4.95;3.47;;;9.50;71.80;;;;;;5025476;28;20083;-50
2022/01/07 12:34:44;;;;;;;7.25;3.33;;;9.50;71.70;;;;;;5034269;28;20037;-48
2022/01/07 12:37:14;;;;;;;4.13;3.25;;;9.60;71.40;;;;;;5037417;28;20034;-51
2022/01/07 12:39:45;;;;;;;6.55;3.08;;;9.50;71.30;;;;;;5032137;28;20846;-51
2022/01/07 12:42:12;;;;;;;4.40;3.13;;;9.60;71.20;;;;;;5031439;28;20041;-52
2022/01/07 12:44:40;;;;;;;5.38;3.88;;;9.60;71.10;;;;;;5035916;28;20061;-50
2022/01/07 12:47:08;;;;;;;4.57;3.50;;;9.60;70.90;;;;;;5032954;28;20143;-48
2022/01/07 12:49:39;;;;;;;6.85;4.35;;;9.60;70.90;;;;;;5027831;28;20037;-49
2022/01/07 12:52:15;;;;;;;6.30;4.43;;;9.50;71.30;;;;;;5030629;28;20037;-52
2022/01/07 12:54:54;;;;;;;7.40;3.70;;;9.50;71.90;;;;;;5034716;28;20887;-52
2022/01/07 12:57:33;;;;;;;2.92;2.60;;;9.50;72.80;;;;;;5041767;28;20060;-49
2022/01/07 13:00:12;;;;;;;7.80;3.55;;;9.40;72.60;;;;;;5021125;28;20042;-52
2022/01/07 13:02:47;;;;;;;2.92;2.65;;;9.30;72.70;;;;;;5044657;28;20562;-49
2022/01/07 13:05:21;;;;;;;2.17;1.65;;;9.10;72.40;;;;;;5028012;28;20048;-49
2022/01/07 13:07:51;;;;;;;2.95;1.38;;;9.00;72.30;;;;;;5031089;28;20038;-48
2022/01/07 13:10:24;;;;;;;2.35;0.98;;;8.90;72.10;;;;;;5031046;28;20041;-49
2022/01/07 13:13:00;;;;;;;0.57;0.57;;;8.80;72.30;;;;;;5045675;28;20043;-52
2022/01/07 13:15:58;;;;;;;2.00;0.77;;;8.60;72.80;;;;;;5045238;28;20041;-52
2022/01/07 13:18:32;;;;;;;2.17;1.00;;;8.50;73.40;;;;;;5029322;28;20037;-50